<?xml version="1.0" encoding="UTF-8" standalone="no" ?>
<gpx xmlns="http://www.topografix.com/GPX/1/1" xmlns:xsi="http://www.w3.org/2001/XMLSchema-instance" xsi:schemaLocation="http://www.topografix.com/GPX/1/1 http://www.topografix.com/GPX/1/1/gpx.xsd" version="1.1" creator="VisuGPX - https://www.visugpx.com">
  <metadata>
    <name>2021-05-16 10:Villegly</name>
  </metadata>
  <trk>
    <name><![CDATA[2021-05-16 10:Villegly, sylvie,Rosy,Carine,Céline,Patrick,Vianney,Jean francois, Sabry, Jacques,Cédric]]></name>
    <trkseg>
      <trkpt lat="43.28289" lon="2.43938">
        <ele>142.38</ele>
        <time>2021-05-16T06:02:33Z</time>
      </trkpt>
      <trkpt lat="43.28271" lon="2.43927">
        <ele>142.08</ele>
        <time>2021-05-16T06:02:57Z</time>
      </trkpt>
      <trkpt lat="43.28255" lon="2.43908">
        <ele>141.5</ele>
        <time>2021-05-16T06:03:06Z</time>
      </trkpt>
      <trkpt lat="43.28234" lon="2.43901">
        <ele>141.01</ele>
        <time>2021-05-16T06:03:16Z</time>
      </trkpt>
      <trkpt lat="43.28211" lon="2.43894">
        <ele>140.77</ele>
        <time>2021-05-16T06:03:26Z</time>
      </trkpt>
      <trkpt lat="43.28186" lon="2.43889">
        <ele>140.04</ele>
        <time>2021-05-16T06:03:43Z</time>
      </trkpt>
      <trkpt lat="43.28153" lon="2.43889">
        <ele>137.66</ele>
        <time>2021-05-16T06:04:05Z</time>
      </trkpt>
      <trkpt lat="43.28102" lon="2.43836">
        <ele>140.44</ele>
        <time>2021-05-16T06:04:41Z</time>
      </trkpt>
      <trkpt lat="43.28052" lon="2.43813">
        <ele>143.29</ele>
        <time>2021-05-16T06:05:11Z</time>
      </trkpt>
      <trkpt lat="43.28016" lon="2.43816">
        <ele>144.82</ele>
        <time>2021-05-16T06:05:25Z</time>
      </trkpt>
      <trkpt lat="43.27998" lon="2.43832">
        <ele>145.92</ele>
        <time>2021-05-16T06:05:35Z</time>
      </trkpt>
      <trkpt lat="43.27993" lon="2.43857">
        <ele>146.23</ele>
        <time>2021-05-16T06:05:44Z</time>
      </trkpt>
      <trkpt lat="43.27988" lon="2.43882">
        <ele>146.67</ele>
        <time>2021-05-16T06:05:53Z</time>
      </trkpt>
      <trkpt lat="43.27977" lon="2.43909">
        <ele>146.74</ele>
        <time>2021-05-16T06:06:04Z</time>
      </trkpt>
      <trkpt lat="43.27957" lon="2.43911">
        <ele>145.82</ele>
        <time>2021-05-16T06:06:15Z</time>
      </trkpt>
      <trkpt lat="43.2794" lon="2.43921">
        <ele>144.68</ele>
        <time>2021-05-16T06:06:24Z</time>
      </trkpt>
      <trkpt lat="43.27935" lon="2.43942">
        <ele>144.84</ele>
        <time>2021-05-16T06:06:36Z</time>
      </trkpt>
      <trkpt lat="43.2792" lon="2.43961">
        <ele>144.98</ele>
        <time>2021-05-16T06:06:47Z</time>
      </trkpt>
      <trkpt lat="43.27898" lon="2.43983">
        <ele>144.93</ele>
        <time>2021-05-16T06:06:58Z</time>
      </trkpt>
      <trkpt lat="43.27879" lon="2.44">
        <ele>144.93</ele>
        <time>2021-05-16T06:07:05Z</time>
      </trkpt>
      <trkpt lat="43.27859" lon="2.44016">
        <ele>145.54</ele>
        <time>2021-05-16T06:07:13Z</time>
      </trkpt>
      <trkpt lat="43.27837" lon="2.44027">
        <ele>146.2</ele>
        <time>2021-05-16T06:07:22Z</time>
      </trkpt>
      <trkpt lat="43.27816" lon="2.44032">
        <ele>145.65</ele>
        <time>2021-05-16T06:07:31Z</time>
      </trkpt>
      <trkpt lat="43.27808" lon="2.44053">
        <ele>145.91</ele>
        <time>2021-05-16T06:07:44Z</time>
      </trkpt>
      <trkpt lat="43.27806" lon="2.44088">
        <ele>148.62</ele>
        <time>2021-05-16T06:08:10Z</time>
      </trkpt>
      <trkpt lat="43.27807" lon="2.44121">
        <ele>153.34</ele>
        <time>2021-05-16T06:08:29Z</time>
      </trkpt>
      <trkpt lat="43.27795" lon="2.44146">
        <ele>155.66</ele>
        <time>2021-05-16T06:08:43Z</time>
      </trkpt>
      <trkpt lat="43.27799" lon="2.44169">
        <ele>156</ele>
        <time>2021-05-16T06:08:54Z</time>
      </trkpt>
      <trkpt lat="43.27806" lon="2.44203">
        <ele>156.54</ele>
        <time>2021-05-16T06:09:11Z</time>
      </trkpt>
      <trkpt lat="43.27813" lon="2.44233">
        <ele>155.2</ele>
        <time>2021-05-16T06:09:21Z</time>
      </trkpt>
      <trkpt lat="43.27821" lon="2.44262">
        <ele>151.81</ele>
        <time>2021-05-16T06:09:35Z</time>
      </trkpt>
      <trkpt lat="43.27819" lon="2.44295">
        <ele>152.22</ele>
        <time>2021-05-16T06:09:47Z</time>
      </trkpt>
      <trkpt lat="43.27816" lon="2.4433">
        <ele>151.96</ele>
        <time>2021-05-16T06:10:01Z</time>
      </trkpt>
      <trkpt lat="43.27819" lon="2.44369">
        <ele>148.69</ele>
        <time>2021-05-16T06:10:16Z</time>
      </trkpt>
      <trkpt lat="43.27816" lon="2.44406">
        <ele>147.15</ele>
        <time>2021-05-16T06:10:28Z</time>
      </trkpt>
      <trkpt lat="43.2782" lon="2.44417">
        <ele>146.93</ele>
        <time>2021-05-16T06:10:32Z</time>
      </trkpt>
      <trkpt lat="43.27832" lon="2.44432">
        <ele>147.95</ele>
        <time>2021-05-16T06:10:41Z</time>
      </trkpt>
      <trkpt lat="43.27856" lon="2.44447">
        <ele>149.52</ele>
        <time>2021-05-16T06:10:54Z</time>
      </trkpt>
      <trkpt lat="43.2788" lon="2.44456">
        <ele>150.42</ele>
        <time>2021-05-16T06:11:05Z</time>
      </trkpt>
      <trkpt lat="43.27891" lon="2.44495">
        <ele>151.33</ele>
        <time>2021-05-16T06:11:16Z</time>
      </trkpt>
      <trkpt lat="43.27907" lon="2.44516">
        <ele>152.23</ele>
        <time>2021-05-16T06:11:26Z</time>
      </trkpt>
      <trkpt lat="43.27918" lon="2.44541">
        <ele>153.11</ele>
        <time>2021-05-16T06:11:37Z</time>
      </trkpt>
      <trkpt lat="43.27922" lon="2.44581">
        <ele>154.33</ele>
        <time>2021-05-16T06:11:48Z</time>
      </trkpt>
      <trkpt lat="43.27908" lon="2.44598">
        <ele>154.25</ele>
        <time>2021-05-16T06:11:56Z</time>
      </trkpt>
      <trkpt lat="43.27894" lon="2.44615">
        <ele>153.34</ele>
        <time>2021-05-16T06:12:05Z</time>
      </trkpt>
      <trkpt lat="43.27881" lon="2.44635">
        <ele>152.53</ele>
        <time>2021-05-16T06:12:15Z</time>
      </trkpt>
      <trkpt lat="43.27863" lon="2.44676">
        <ele>151.61</ele>
        <time>2021-05-16T06:12:36Z</time>
      </trkpt>
      <trkpt lat="43.27851" lon="2.44713">
        <ele>151.94</ele>
        <time>2021-05-16T06:12:52Z</time>
      </trkpt>
      <trkpt lat="43.27838" lon="2.44769">
        <ele>152.77</ele>
        <time>2021-05-16T06:13:17Z</time>
      </trkpt>
      <trkpt lat="43.27827" lon="2.44847">
        <ele>153.34</ele>
        <time>2021-05-16T06:13:36Z</time>
      </trkpt>
      <trkpt lat="43.27856" lon="2.44926">
        <ele>156.28</ele>
        <time>2021-05-16T06:14:03Z</time>
      </trkpt>
      <trkpt lat="43.27855" lon="2.44983">
        <ele>156.51</ele>
        <time>2021-05-16T06:14:22Z</time>
      </trkpt>
      <trkpt lat="43.27864" lon="2.45034">
        <ele>161.59</ele>
        <time>2021-05-16T06:14:47Z</time>
      </trkpt>
      <trkpt lat="43.27873" lon="2.4507">
        <ele>162.41</ele>
        <time>2021-05-16T06:15:01Z</time>
      </trkpt>
      <trkpt lat="43.27882" lon="2.45103">
        <ele>163.11</ele>
        <time>2021-05-16T06:15:13Z</time>
      </trkpt>
      <trkpt lat="43.2789" lon="2.45139">
        <ele>163.94</ele>
        <time>2021-05-16T06:15:25Z</time>
      </trkpt>
      <trkpt lat="43.27899" lon="2.45166">
        <ele>163.64</ele>
        <time>2021-05-16T06:15:36Z</time>
      </trkpt>
      <trkpt lat="43.27906" lon="2.45204">
        <ele>163.6</ele>
        <time>2021-05-16T06:15:48Z</time>
      </trkpt>
      <trkpt lat="43.27905" lon="2.45239">
        <ele>162.6</ele>
        <time>2021-05-16T06:15:59Z</time>
      </trkpt>
      <trkpt lat="43.27913" lon="2.45283">
        <ele>162.53</ele>
        <time>2021-05-16T06:16:09Z</time>
      </trkpt>
      <trkpt lat="43.27926" lon="2.45309">
        <ele>163.74</ele>
        <time>2021-05-16T06:16:24Z</time>
      </trkpt>
      <trkpt lat="43.27942" lon="2.45327">
        <ele>164.91</ele>
        <time>2021-05-16T06:16:37Z</time>
      </trkpt>
      <trkpt lat="43.27953" lon="2.4535">
        <ele>165.02</ele>
        <time>2021-05-16T06:17:01Z</time>
      </trkpt>
      <trkpt lat="43.27955" lon="2.4538">
        <ele>164.31</ele>
        <time>2021-05-16T06:17:13Z</time>
      </trkpt>
      <trkpt lat="43.27954" lon="2.45413">
        <ele>163.34</ele>
        <time>2021-05-16T06:17:24Z</time>
      </trkpt>
      <trkpt lat="43.27956" lon="2.4545">
        <ele>162.34</ele>
        <time>2021-05-16T06:17:35Z</time>
      </trkpt>
      <trkpt lat="43.27959" lon="2.45488">
        <ele>161.58</ele>
        <time>2021-05-16T06:17:45Z</time>
      </trkpt>
      <trkpt lat="43.27965" lon="2.45524">
        <ele>160.91</ele>
        <time>2021-05-16T06:17:56Z</time>
      </trkpt>
      <trkpt lat="43.27963" lon="2.45554">
        <ele>160.91</ele>
        <time>2021-05-16T06:18:06Z</time>
      </trkpt>
      <trkpt lat="43.2796" lon="2.45586">
        <ele>161.19</ele>
        <time>2021-05-16T06:18:15Z</time>
      </trkpt>
      <trkpt lat="43.27955" lon="2.45617">
        <ele>161.24</ele>
        <time>2021-05-16T06:18:24Z</time>
      </trkpt>
      <trkpt lat="43.27938" lon="2.45652">
        <ele>161.37</ele>
        <time>2021-05-16T06:18:38Z</time>
      </trkpt>
      <trkpt lat="43.27942" lon="2.45693">
        <ele>162.39</ele>
        <time>2021-05-16T06:18:55Z</time>
      </trkpt>
      <trkpt lat="43.27956" lon="2.4573">
        <ele>165.81</ele>
        <time>2021-05-16T06:19:11Z</time>
      </trkpt>
      <trkpt lat="43.27971" lon="2.45766">
        <ele>169.96</ele>
        <time>2021-05-16T06:19:31Z</time>
      </trkpt>
      <trkpt lat="43.27981" lon="2.4584">
        <ele>172.49</ele>
        <time>2021-05-16T06:20:03Z</time>
      </trkpt>
      <trkpt lat="43.27981" lon="2.45891">
        <ele>173.48</ele>
        <time>2021-05-16T06:20:14Z</time>
      </trkpt>
      <trkpt lat="43.28007" lon="2.45905">
        <ele>174.37</ele>
        <time>2021-05-16T06:20:24Z</time>
      </trkpt>
      <trkpt lat="43.28044" lon="2.45908">
        <ele>174</ele>
        <time>2021-05-16T06:20:40Z</time>
      </trkpt>
      <trkpt lat="43.28072" lon="2.45902">
        <ele>173.49</ele>
        <time>2021-05-16T06:20:51Z</time>
      </trkpt>
      <trkpt lat="43.28094" lon="2.45891">
        <ele>172.47</ele>
        <time>2021-05-16T06:20:59Z</time>
      </trkpt>
      <trkpt lat="43.28119" lon="2.45881">
        <ele>170.99</ele>
        <time>2021-05-16T06:21:07Z</time>
      </trkpt>
      <trkpt lat="43.28143" lon="2.45882">
        <ele>169.75</ele>
        <time>2021-05-16T06:21:16Z</time>
      </trkpt>
      <trkpt lat="43.28164" lon="2.45889">
        <ele>169.39</ele>
        <time>2021-05-16T06:21:24Z</time>
      </trkpt>
      <trkpt lat="43.28183" lon="2.45903">
        <ele>170.48</ele>
        <time>2021-05-16T06:21:36Z</time>
      </trkpt>
      <trkpt lat="43.28209" lon="2.4591">
        <ele>172.6</ele>
        <time>2021-05-16T06:21:49Z</time>
      </trkpt>
      <trkpt lat="43.28232" lon="2.45915">
        <ele>174.39</ele>
        <time>2021-05-16T06:21:59Z</time>
      </trkpt>
      <trkpt lat="43.28254" lon="2.45923">
        <ele>176.37</ele>
        <time>2021-05-16T06:22:10Z</time>
      </trkpt>
      <trkpt lat="43.28278" lon="2.45936">
        <ele>179.71</ele>
        <time>2021-05-16T06:22:24Z</time>
      </trkpt>
      <trkpt lat="43.28314" lon="2.45951">
        <ele>186.97</ele>
        <time>2021-05-16T06:22:48Z</time>
      </trkpt>
      <trkpt lat="43.28326" lon="2.45983">
        <ele>189.06</ele>
        <time>2021-05-16T06:22:59Z</time>
      </trkpt>
      <trkpt lat="43.28349" lon="2.46006">
        <ele>189.96</ele>
        <time>2021-05-16T06:23:10Z</time>
      </trkpt>
      <trkpt lat="43.28359" lon="2.46032">
        <ele>189.98</ele>
        <time>2021-05-16T06:23:20Z</time>
      </trkpt>
      <trkpt lat="43.2836" lon="2.4606">
        <ele>189.87</ele>
        <time>2021-05-16T06:23:29Z</time>
      </trkpt>
      <trkpt lat="43.28374" lon="2.46079">
        <ele>189.57</ele>
        <time>2021-05-16T06:23:41Z</time>
      </trkpt>
      <trkpt lat="43.28385" lon="2.4608">
        <ele>190.32</ele>
        <time>2021-05-16T06:24:04Z</time>
      </trkpt>
      <trkpt lat="43.28388" lon="2.46072">
        <ele>190.32</ele>
        <time>2021-05-16T06:24:18Z</time>
      </trkpt>
      <trkpt lat="43.28397" lon="2.46092">
        <ele>190.54</ele>
        <time>2021-05-16T06:24:29Z</time>
      </trkpt>
      <trkpt lat="43.284" lon="2.46101">
        <ele>190.54</ele>
        <time>2021-05-16T06:24:32Z</time>
      </trkpt>
      <trkpt lat="43.2841" lon="2.46129">
        <ele>191.23</ele>
        <time>2021-05-16T06:24:41Z</time>
      </trkpt>
      <trkpt lat="43.28421" lon="2.46156">
        <ele>191.27</ele>
        <time>2021-05-16T06:24:50Z</time>
      </trkpt>
      <trkpt lat="43.2843" lon="2.46185">
        <ele>191.74</ele>
        <time>2021-05-16T06:24:59Z</time>
      </trkpt>
      <trkpt lat="43.28439" lon="2.46215">
        <ele>192.24</ele>
        <time>2021-05-16T06:25:09Z</time>
      </trkpt>
      <trkpt lat="43.28448" lon="2.46245">
        <ele>192.43</ele>
        <time>2021-05-16T06:25:19Z</time>
      </trkpt>
      <trkpt lat="43.28455" lon="2.46273">
        <ele>192.72</ele>
        <time>2021-05-16T06:25:29Z</time>
      </trkpt>
      <trkpt lat="43.28464" lon="2.46307">
        <ele>193.11</ele>
        <time>2021-05-16T06:25:39Z</time>
      </trkpt>
      <trkpt lat="43.28472" lon="2.46338">
        <ele>194</ele>
        <time>2021-05-16T06:25:50Z</time>
      </trkpt>
      <trkpt lat="43.28472" lon="2.46371">
        <ele>194.37</ele>
        <time>2021-05-16T06:26:00Z</time>
      </trkpt>
      <trkpt lat="43.28466" lon="2.46403">
        <ele>193.88</ele>
        <time>2021-05-16T06:26:11Z</time>
      </trkpt>
      <trkpt lat="43.28457" lon="2.46431">
        <ele>193.13</ele>
        <time>2021-05-16T06:26:20Z</time>
      </trkpt>
      <trkpt lat="43.28446" lon="2.46455">
        <ele>192.34</ele>
        <time>2021-05-16T06:26:30Z</time>
      </trkpt>
      <trkpt lat="43.28438" lon="2.46488">
        <ele>191.96</ele>
        <time>2021-05-16T06:26:39Z</time>
      </trkpt>
      <trkpt lat="43.28449" lon="2.46513">
        <ele>192.59</ele>
        <time>2021-05-16T06:26:50Z</time>
      </trkpt>
      <trkpt lat="43.28464" lon="2.46532">
        <ele>193.8</ele>
        <time>2021-05-16T06:27:02Z</time>
      </trkpt>
      <trkpt lat="43.28482" lon="2.46554">
        <ele>195.34</ele>
        <time>2021-05-16T06:27:15Z</time>
      </trkpt>
      <trkpt lat="43.28498" lon="2.46568">
        <ele>196.79</ele>
        <time>2021-05-16T06:27:26Z</time>
      </trkpt>
      <trkpt lat="43.28515" lon="2.46582">
        <ele>196.95</ele>
        <time>2021-05-16T06:27:39Z</time>
      </trkpt>
      <trkpt lat="43.28537" lon="2.46598">
        <ele>195.88</ele>
        <time>2021-05-16T06:27:57Z</time>
      </trkpt>
      <trkpt lat="43.28558" lon="2.46615">
        <ele>194.37</ele>
        <time>2021-05-16T06:28:11Z</time>
      </trkpt>
      <trkpt lat="43.28578" lon="2.46633">
        <ele>193.51</ele>
        <time>2021-05-16T06:28:20Z</time>
      </trkpt>
      <trkpt lat="43.28588" lon="2.46657">
        <ele>192.52</ele>
        <time>2021-05-16T06:28:28Z</time>
      </trkpt>
      <trkpt lat="43.28601" lon="2.46677">
        <ele>191.47</ele>
        <time>2021-05-16T06:28:36Z</time>
      </trkpt>
      <trkpt lat="43.28602" lon="2.46704">
        <ele>190.78</ele>
        <time>2021-05-16T06:28:43Z</time>
      </trkpt>
      <trkpt lat="43.28602" lon="2.4673">
        <ele>190.16</ele>
        <time>2021-05-16T06:28:50Z</time>
      </trkpt>
      <trkpt lat="43.28604" lon="2.46756">
        <ele>189.94</ele>
        <time>2021-05-16T06:28:58Z</time>
      </trkpt>
      <trkpt lat="43.28605" lon="2.46783">
        <ele>189.86</ele>
        <time>2021-05-16T06:29:06Z</time>
      </trkpt>
      <trkpt lat="43.28609" lon="2.46811">
        <ele>190.01</ele>
        <time>2021-05-16T06:29:14Z</time>
      </trkpt>
      <trkpt lat="43.28622" lon="2.46833">
        <ele>190</ele>
        <time>2021-05-16T06:29:22Z</time>
      </trkpt>
      <trkpt lat="43.28631" lon="2.4686">
        <ele>189.57</ele>
        <time>2021-05-16T06:29:31Z</time>
      </trkpt>
      <trkpt lat="43.28639" lon="2.46884">
        <ele>188.52</ele>
        <time>2021-05-16T06:29:40Z</time>
      </trkpt>
      <trkpt lat="43.28644" lon="2.46915">
        <ele>188.08</ele>
        <time>2021-05-16T06:29:50Z</time>
      </trkpt>
      <trkpt lat="43.28654" lon="2.46945">
        <ele>186.44</ele>
        <time>2021-05-16T06:30:03Z</time>
      </trkpt>
      <trkpt lat="43.28672" lon="2.46962">
        <ele>184.14</ele>
        <time>2021-05-16T06:30:12Z</time>
      </trkpt>
      <trkpt lat="43.2869" lon="2.4698">
        <ele>182.4</ele>
        <time>2021-05-16T06:30:20Z</time>
      </trkpt>
      <trkpt lat="43.28708" lon="2.46996">
        <ele>181.67</ele>
        <time>2021-05-16T06:30:29Z</time>
      </trkpt>
      <trkpt lat="43.28725" lon="2.47011">
        <ele>181.45</ele>
        <time>2021-05-16T06:30:37Z</time>
      </trkpt>
      <trkpt lat="43.28739" lon="2.47029">
        <ele>181.18</ele>
        <time>2021-05-16T06:30:45Z</time>
      </trkpt>
      <trkpt lat="43.28744" lon="2.47053">
        <ele>180.98</ele>
        <time>2021-05-16T06:30:54Z</time>
      </trkpt>
      <trkpt lat="43.28751" lon="2.47077">
        <ele>180.89</ele>
        <time>2021-05-16T06:31:03Z</time>
      </trkpt>
      <trkpt lat="43.28759" lon="2.47093">
        <ele>180.82</ele>
        <time>2021-05-16T06:31:09Z</time>
      </trkpt>
      <trkpt lat="43.28763" lon="2.47101">
        <ele>180.85</ele>
        <time>2021-05-16T06:31:12Z</time>
      </trkpt>
      <trkpt lat="43.28774" lon="2.47129">
        <ele>181.3</ele>
        <time>2021-05-16T06:31:21Z</time>
      </trkpt>
      <trkpt lat="43.28783" lon="2.47153">
        <ele>181.7</ele>
        <time>2021-05-16T06:31:30Z</time>
      </trkpt>
      <trkpt lat="43.28792" lon="2.47175">
        <ele>182.22</ele>
        <time>2021-05-16T06:31:39Z</time>
      </trkpt>
      <trkpt lat="43.28798" lon="2.47202">
        <ele>183.72</ele>
        <time>2021-05-16T06:31:49Z</time>
      </trkpt>
      <trkpt lat="43.28805" lon="2.47228">
        <ele>184.99</ele>
        <time>2021-05-16T06:31:59Z</time>
      </trkpt>
      <trkpt lat="43.28811" lon="2.47254">
        <ele>185.52</ele>
        <time>2021-05-16T06:32:54Z</time>
      </trkpt>
      <trkpt lat="43.28832" lon="2.47262">
        <ele>185.84</ele>
        <time>2021-05-16T06:33:06Z</time>
      </trkpt>
      <trkpt lat="43.28851" lon="2.47273">
        <ele>186.42</ele>
        <time>2021-05-16T06:33:16Z</time>
      </trkpt>
      <trkpt lat="43.28872" lon="2.47283">
        <ele>187.27</ele>
        <time>2021-05-16T06:33:26Z</time>
      </trkpt>
      <trkpt lat="43.28891" lon="2.47293">
        <ele>188.44</ele>
        <time>2021-05-16T06:33:36Z</time>
      </trkpt>
      <trkpt lat="43.28907" lon="2.47305">
        <ele>190.39</ele>
        <time>2021-05-16T06:33:47Z</time>
      </trkpt>
      <trkpt lat="43.2894" lon="2.47312">
        <ele>192.72</ele>
        <time>2021-05-16T06:33:59Z</time>
      </trkpt>
      <trkpt lat="43.28962" lon="2.47308">
        <ele>193.68</ele>
        <time>2021-05-16T06:34:08Z</time>
      </trkpt>
      <trkpt lat="43.28968" lon="2.47322">
        <ele>194.47</ele>
        <time>2021-05-16T06:34:23Z</time>
      </trkpt>
      <trkpt lat="43.2897" lon="2.4735">
        <ele>193.9</ele>
        <time>2021-05-16T06:34:32Z</time>
      </trkpt>
      <trkpt lat="43.28975" lon="2.47377">
        <ele>193.33</ele>
        <time>2021-05-16T06:34:40Z</time>
      </trkpt>
      <trkpt lat="43.28985" lon="2.47403">
        <ele>193.37</ele>
        <time>2021-05-16T06:34:49Z</time>
      </trkpt>
      <trkpt lat="43.28994" lon="2.47428">
        <ele>193.71</ele>
        <time>2021-05-16T06:34:57Z</time>
      </trkpt>
      <trkpt lat="43.29004" lon="2.47453">
        <ele>193.93</ele>
        <time>2021-05-16T06:35:05Z</time>
      </trkpt>
      <trkpt lat="43.29012" lon="2.47477">
        <ele>193.98</ele>
        <time>2021-05-16T06:35:13Z</time>
      </trkpt>
      <trkpt lat="43.29019" lon="2.47504">
        <ele>194</ele>
        <time>2021-05-16T06:35:21Z</time>
      </trkpt>
      <trkpt lat="43.29026" lon="2.4753">
        <ele>192.97</ele>
        <time>2021-05-16T06:35:28Z</time>
      </trkpt>
      <trkpt lat="43.29032" lon="2.47557">
        <ele>191.98</ele>
        <time>2021-05-16T06:35:35Z</time>
      </trkpt>
      <trkpt lat="43.2904" lon="2.4758">
        <ele>191.28</ele>
        <time>2021-05-16T06:35:43Z</time>
      </trkpt>
      <trkpt lat="43.29058" lon="2.47586">
        <ele>191.34</ele>
        <time>2021-05-16T06:35:53Z</time>
      </trkpt>
      <trkpt lat="43.29074" lon="2.476">
        <ele>192.86</ele>
        <time>2021-05-16T06:36:07Z</time>
      </trkpt>
      <trkpt lat="43.29099" lon="2.47598">
        <ele>194.7</ele>
        <time>2021-05-16T06:36:19Z</time>
      </trkpt>
      <trkpt lat="43.29117" lon="2.47595">
        <ele>198.15</ele>
        <time>2021-05-16T06:36:32Z</time>
      </trkpt>
      <trkpt lat="43.29126" lon="2.47622">
        <ele>201.35</ele>
        <time>2021-05-16T06:36:49Z</time>
      </trkpt>
      <trkpt lat="43.29121" lon="2.47665">
        <ele>200.16</ele>
        <time>2021-05-16T06:37:07Z</time>
      </trkpt>
      <trkpt lat="43.29104" lon="2.47682">
        <ele>200.38</ele>
        <time>2021-05-16T06:38:02Z</time>
      </trkpt>
      <trkpt lat="43.2912" lon="2.47681">
        <ele>200.23</ele>
        <time>2021-05-16T06:39:16Z</time>
      </trkpt>
      <trkpt lat="43.29142" lon="2.47685">
        <ele>200.19</ele>
        <time>2021-05-16T06:39:26Z</time>
      </trkpt>
      <trkpt lat="43.29162" lon="2.47688">
        <ele>200.25</ele>
        <time>2021-05-16T06:39:35Z</time>
      </trkpt>
      <trkpt lat="43.29181" lon="2.47687">
        <ele>201.37</ele>
        <time>2021-05-16T06:39:44Z</time>
      </trkpt>
      <trkpt lat="43.29199" lon="2.47696">
        <ele>203</ele>
        <time>2021-05-16T06:39:54Z</time>
      </trkpt>
      <trkpt lat="43.29215" lon="2.47697">
        <ele>204.32</ele>
        <time>2021-05-16T06:40:03Z</time>
      </trkpt>
      <trkpt lat="43.29227" lon="2.47675">
        <ele>205.45</ele>
        <time>2021-05-16T06:40:12Z</time>
      </trkpt>
      <trkpt lat="43.29239" lon="2.47654">
        <ele>206.63</ele>
        <time>2021-05-16T06:40:21Z</time>
      </trkpt>
      <trkpt lat="43.2925" lon="2.47634">
        <ele>207.29</ele>
        <time>2021-05-16T06:40:30Z</time>
      </trkpt>
      <trkpt lat="43.29263" lon="2.47617">
        <ele>208.02</ele>
        <time>2021-05-16T06:40:39Z</time>
      </trkpt>
      <trkpt lat="43.29266" lon="2.47607">
        <ele>208.49</ele>
        <time>2021-05-16T06:40:42Z</time>
      </trkpt>
      <trkpt lat="43.29273" lon="2.47589">
        <ele>209.38</ele>
        <time>2021-05-16T06:40:49Z</time>
      </trkpt>
      <trkpt lat="43.29284" lon="2.47562">
        <ele>210.74</ele>
        <time>2021-05-16T06:40:59Z</time>
      </trkpt>
      <trkpt lat="43.29299" lon="2.47544">
        <ele>212.21</ele>
        <time>2021-05-16T06:41:10Z</time>
      </trkpt>
      <trkpt lat="43.29315" lon="2.47531">
        <ele>213.47</ele>
        <time>2021-05-16T06:41:20Z</time>
      </trkpt>
      <trkpt lat="43.29338" lon="2.47519">
        <ele>215.98</ele>
        <time>2021-05-16T06:41:41Z</time>
      </trkpt>
      <trkpt lat="43.29358" lon="2.47492">
        <ele>215.8</ele>
        <time>2021-05-16T06:41:52Z</time>
      </trkpt>
      <trkpt lat="43.29373" lon="2.47461">
        <ele>219.3</ele>
        <time>2021-05-16T06:42:09Z</time>
      </trkpt>
      <trkpt lat="43.29388" lon="2.47423">
        <ele>222.94</ele>
        <time>2021-05-16T06:42:25Z</time>
      </trkpt>
      <trkpt lat="43.29396" lon="2.47373">
        <ele>228.65</ele>
        <time>2021-05-16T06:42:52Z</time>
      </trkpt>
      <trkpt lat="43.29376" lon="2.47324">
        <ele>225.73</ele>
        <time>2021-05-16T06:43:15Z</time>
      </trkpt>
      <trkpt lat="43.29394" lon="2.47292">
        <ele>231.33</ele>
        <time>2021-05-16T06:43:41Z</time>
      </trkpt>
      <trkpt lat="43.29413" lon="2.4727">
        <ele>233.28</ele>
        <time>2021-05-16T06:43:51Z</time>
      </trkpt>
      <trkpt lat="43.29433" lon="2.47267">
        <ele>234.78</ele>
        <time>2021-05-16T06:44:04Z</time>
      </trkpt>
      <trkpt lat="43.29466" lon="2.47263">
        <ele>236.15</ele>
        <time>2021-05-16T06:44:22Z</time>
      </trkpt>
      <trkpt lat="43.29493" lon="2.47259">
        <ele>237.22</ele>
        <time>2021-05-16T06:44:40Z</time>
      </trkpt>
      <trkpt lat="43.29512" lon="2.47285">
        <ele>232.79</ele>
        <time>2021-05-16T06:45:03Z</time>
      </trkpt>
      <trkpt lat="43.29512" lon="2.47319">
        <ele>227.41</ele>
        <time>2021-05-16T06:45:20Z</time>
      </trkpt>
      <trkpt lat="43.29531" lon="2.47343">
        <ele>226.3</ele>
        <time>2021-05-16T06:45:32Z</time>
      </trkpt>
      <trkpt lat="43.29554" lon="2.47357">
        <ele>224.24</ele>
        <time>2021-05-16T06:45:44Z</time>
      </trkpt>
      <trkpt lat="43.29577" lon="2.47368">
        <ele>221.14</ele>
        <time>2021-05-16T06:45:58Z</time>
      </trkpt>
      <trkpt lat="43.29601" lon="2.4737">
        <ele>218.92</ele>
        <time>2021-05-16T06:46:06Z</time>
      </trkpt>
      <trkpt lat="43.29625" lon="2.47375">
        <ele>217.12</ele>
        <time>2021-05-16T06:46:15Z</time>
      </trkpt>
      <trkpt lat="43.29646" lon="2.47387">
        <ele>217.26</ele>
        <time>2021-05-16T06:46:25Z</time>
      </trkpt>
      <trkpt lat="43.29667" lon="2.474">
        <ele>218.3</ele>
        <time>2021-05-16T06:46:37Z</time>
      </trkpt>
      <trkpt lat="43.29685" lon="2.47419">
        <ele>219.14</ele>
        <time>2021-05-16T06:46:47Z</time>
      </trkpt>
      <trkpt lat="43.29704" lon="2.47433">
        <ele>219.15</ele>
        <time>2021-05-16T06:46:56Z</time>
      </trkpt>
      <trkpt lat="43.29724" lon="2.47436">
        <ele>216.77</ele>
        <time>2021-05-16T06:47:04Z</time>
      </trkpt>
      <trkpt lat="43.29747" lon="2.47446">
        <ele>214.14</ele>
        <time>2021-05-16T06:47:18Z</time>
      </trkpt>
      <trkpt lat="43.29748" lon="2.47463">
        <ele>213.83</ele>
        <time>2021-05-16T06:48:02Z</time>
      </trkpt>
      <trkpt lat="43.29745" lon="2.47439">
        <ele>214.22</ele>
        <time>2021-05-16T06:48:18Z</time>
      </trkpt>
      <trkpt lat="43.29725" lon="2.47433">
        <ele>214.21</ele>
        <time>2021-05-16T06:48:25Z</time>
      </trkpt>
      <trkpt lat="43.29706" lon="2.47425">
        <ele>218.14</ele>
        <time>2021-05-16T06:48:36Z</time>
      </trkpt>
      <trkpt lat="43.29692" lon="2.47408">
        <ele>219.35</ele>
        <time>2021-05-16T06:48:43Z</time>
      </trkpt>
      <trkpt lat="43.29677" lon="2.47393">
        <ele>219.12</ele>
        <time>2021-05-16T06:48:51Z</time>
      </trkpt>
      <trkpt lat="43.29657" lon="2.47381">
        <ele>217.98</ele>
        <time>2021-05-16T06:49:01Z</time>
      </trkpt>
      <trkpt lat="43.29641" lon="2.47374">
        <ele>217.25</ele>
        <time>2021-05-16T06:49:08Z</time>
      </trkpt>
      <trkpt lat="43.29636" lon="2.47374">
        <ele>217.09</ele>
        <time>2021-05-16T06:49:10Z</time>
      </trkpt>
      <trkpt lat="43.29611" lon="2.47376">
        <ele>217.53</ele>
        <time>2021-05-16T06:49:19Z</time>
      </trkpt>
      <trkpt lat="43.29586" lon="2.47371">
        <ele>220.51</ele>
        <time>2021-05-16T06:49:30Z</time>
      </trkpt>
      <trkpt lat="43.29554" lon="2.47377">
        <ele>223.58</ele>
        <time>2021-05-16T06:49:44Z</time>
      </trkpt>
      <trkpt lat="43.29518" lon="2.47371">
        <ele>224.94</ele>
        <time>2021-05-16T06:50:11Z</time>
      </trkpt>
      <trkpt lat="43.29522" lon="2.47373">
        <ele>225.46</ele>
        <time>2021-05-16T06:51:04Z</time>
      </trkpt>
      <trkpt lat="43.29547" lon="2.4738">
        <ele>224.72</ele>
        <time>2021-05-16T06:51:24Z</time>
      </trkpt>
      <trkpt lat="43.29572" lon="2.47373">
        <ele>222.18</ele>
        <time>2021-05-16T06:51:40Z</time>
      </trkpt>
      <trkpt lat="43.296" lon="2.47377">
        <ele>219.99</ele>
        <time>2021-05-16T06:51:51Z</time>
      </trkpt>
      <trkpt lat="43.29622" lon="2.47379">
        <ele>217.89</ele>
        <time>2021-05-16T06:52:00Z</time>
      </trkpt>
      <trkpt lat="43.29641" lon="2.47389">
        <ele>217.69</ele>
        <time>2021-05-16T06:52:10Z</time>
      </trkpt>
      <trkpt lat="43.29659" lon="2.47399">
        <ele>218.37</ele>
        <time>2021-05-16T06:52:20Z</time>
      </trkpt>
      <trkpt lat="43.29677" lon="2.47418">
        <ele>219.52</ele>
        <time>2021-05-16T06:52:29Z</time>
      </trkpt>
      <trkpt lat="43.29693" lon="2.47437">
        <ele>220.2</ele>
        <time>2021-05-16T06:52:38Z</time>
      </trkpt>
      <trkpt lat="43.29719" lon="2.47441">
        <ele>218.31</ele>
        <time>2021-05-16T06:52:47Z</time>
      </trkpt>
      <trkpt lat="43.29738" lon="2.47448">
        <ele>215.8</ele>
        <time>2021-05-16T06:52:54Z</time>
      </trkpt>
      <trkpt lat="43.29748" lon="2.47466">
        <ele>215.38</ele>
        <time>2021-05-16T06:53:06Z</time>
      </trkpt>
      <trkpt lat="43.29745" lon="2.47489">
        <ele>214.34</ele>
        <time>2021-05-16T06:53:18Z</time>
      </trkpt>
      <trkpt lat="43.29739" lon="2.47515">
        <ele>212.78</ele>
        <time>2021-05-16T06:53:27Z</time>
      </trkpt>
      <trkpt lat="43.29732" lon="2.4754">
        <ele>211.48</ele>
        <time>2021-05-16T06:53:36Z</time>
      </trkpt>
      <trkpt lat="43.29725" lon="2.47566">
        <ele>210.52</ele>
        <time>2021-05-16T06:53:45Z</time>
      </trkpt>
      <trkpt lat="43.29719" lon="2.47594">
        <ele>209.97</ele>
        <time>2021-05-16T06:53:54Z</time>
      </trkpt>
      <trkpt lat="43.29715" lon="2.47624">
        <ele>209.6</ele>
        <time>2021-05-16T06:54:05Z</time>
      </trkpt>
      <trkpt lat="43.2971" lon="2.47653">
        <ele>208.9</ele>
        <time>2021-05-16T06:54:13Z</time>
      </trkpt>
      <trkpt lat="43.29707" lon="2.4768">
        <ele>208.42</ele>
        <time>2021-05-16T06:54:20Z</time>
      </trkpt>
      <trkpt lat="43.2971" lon="2.47711">
        <ele>207.81</ele>
        <time>2021-05-16T06:54:28Z</time>
      </trkpt>
      <trkpt lat="43.29712" lon="2.4774">
        <ele>207.3</ele>
        <time>2021-05-16T06:54:36Z</time>
      </trkpt>
      <trkpt lat="43.29712" lon="2.47769">
        <ele>206.95</ele>
        <time>2021-05-16T06:54:44Z</time>
      </trkpt>
      <trkpt lat="43.29711" lon="2.47795">
        <ele>206.67</ele>
        <time>2021-05-16T06:54:53Z</time>
      </trkpt>
      <trkpt lat="43.29711" lon="2.47821">
        <ele>206.34</ele>
        <time>2021-05-16T06:55:02Z</time>
      </trkpt>
      <trkpt lat="43.29717" lon="2.47848">
        <ele>206.13</ele>
        <time>2021-05-16T06:55:10Z</time>
      </trkpt>
      <trkpt lat="43.2972" lon="2.47877">
        <ele>206.32</ele>
        <time>2021-05-16T06:55:19Z</time>
      </trkpt>
      <trkpt lat="43.29723" lon="2.47904">
        <ele>206.39</ele>
        <time>2021-05-16T06:55:28Z</time>
      </trkpt>
      <trkpt lat="43.29723" lon="2.47933">
        <ele>206</ele>
        <time>2021-05-16T06:55:37Z</time>
      </trkpt>
      <trkpt lat="43.2972" lon="2.47961">
        <ele>205.54</ele>
        <time>2021-05-16T06:55:45Z</time>
      </trkpt>
      <trkpt lat="43.29719" lon="2.4799">
        <ele>205.4</ele>
        <time>2021-05-16T06:55:53Z</time>
      </trkpt>
      <trkpt lat="43.29722" lon="2.48016">
        <ele>205.09</ele>
        <time>2021-05-16T06:56:00Z</time>
      </trkpt>
      <trkpt lat="43.29724" lon="2.48043">
        <ele>204.8</ele>
        <time>2021-05-16T06:56:07Z</time>
      </trkpt>
      <trkpt lat="43.29726" lon="2.48072">
        <ele>204.79</ele>
        <time>2021-05-16T06:56:15Z</time>
      </trkpt>
      <trkpt lat="43.29732" lon="2.48098">
        <ele>204.92</ele>
        <time>2021-05-16T06:56:23Z</time>
      </trkpt>
      <trkpt lat="43.2974" lon="2.48122">
        <ele>205.38</ele>
        <time>2021-05-16T06:56:31Z</time>
      </trkpt>
      <trkpt lat="43.2974" lon="2.48126">
        <ele>205.66</ele>
        <time>2021-05-16T06:56:32Z</time>
      </trkpt>
      <trkpt lat="43.29749" lon="2.48138">
        <ele>207.04</ele>
        <time>2021-05-16T06:56:51Z</time>
      </trkpt>
      <trkpt lat="43.29768" lon="2.48146">
        <ele>207.81</ele>
        <time>2021-05-16T06:57:00Z</time>
      </trkpt>
      <trkpt lat="43.29786" lon="2.48155">
        <ele>209.11</ele>
        <time>2021-05-16T06:57:09Z</time>
      </trkpt>
      <trkpt lat="43.29805" lon="2.48164">
        <ele>210.81</ele>
        <time>2021-05-16T06:57:18Z</time>
      </trkpt>
      <trkpt lat="43.29822" lon="2.48175">
        <ele>212.92</ele>
        <time>2021-05-16T06:57:28Z</time>
      </trkpt>
      <trkpt lat="43.29838" lon="2.48192">
        <ele>215.3</ele>
        <time>2021-05-16T06:57:39Z</time>
      </trkpt>
      <trkpt lat="43.29846" lon="2.48219">
        <ele>216.3</ele>
        <time>2021-05-16T06:57:51Z</time>
      </trkpt>
      <trkpt lat="43.29845" lon="2.48218">
        <ele>216.87</ele>
        <time>2021-05-16T06:58:21Z</time>
      </trkpt>
      <trkpt lat="43.29844" lon="2.48187">
        <ele>216.23</ele>
        <time>2021-05-16T06:58:37Z</time>
      </trkpt>
      <trkpt lat="43.29841" lon="2.48155">
        <ele>216.92</ele>
        <time>2021-05-16T06:58:59Z</time>
      </trkpt>
      <trkpt lat="43.29861" lon="2.4815">
        <ele>218.26</ele>
        <time>2021-05-16T06:59:23Z</time>
      </trkpt>
      <trkpt lat="43.29879" lon="2.48151">
        <ele>219.3</ele>
        <time>2021-05-16T06:59:34Z</time>
      </trkpt>
      <trkpt lat="43.29896" lon="2.48143">
        <ele>221.37</ele>
        <time>2021-05-16T07:00:02Z</time>
      </trkpt>
      <trkpt lat="43.29912" lon="2.48153">
        <ele>223.24</ele>
        <time>2021-05-16T07:00:14Z</time>
      </trkpt>
      <trkpt lat="43.29933" lon="2.48155">
        <ele>225.84</ele>
        <time>2021-05-16T07:00:32Z</time>
      </trkpt>
      <trkpt lat="43.29941" lon="2.48168">
        <ele>225.89</ele>
        <time>2021-05-16T07:01:04Z</time>
      </trkpt>
      <trkpt lat="43.29942" lon="2.48189">
        <ele>226.09</ele>
        <time>2021-05-16T07:01:22Z</time>
      </trkpt>
      <trkpt lat="43.29948" lon="2.48215">
        <ele>225.73</ele>
        <time>2021-05-16T07:01:33Z</time>
      </trkpt>
      <trkpt lat="43.29949" lon="2.48244">
        <ele>225.66</ele>
        <time>2021-05-16T07:01:43Z</time>
      </trkpt>
      <trkpt lat="43.29949" lon="2.48272">
        <ele>225.28</ele>
        <time>2021-05-16T07:01:53Z</time>
      </trkpt>
      <trkpt lat="43.29975" lon="2.48303">
        <ele>225.65</ele>
        <time>2021-05-16T07:02:10Z</time>
      </trkpt>
      <trkpt lat="43.29996" lon="2.48308">
        <ele>227.02</ele>
        <time>2021-05-16T07:02:22Z</time>
      </trkpt>
      <trkpt lat="43.30021" lon="2.48299">
        <ele>229.84</ele>
        <time>2021-05-16T07:02:39Z</time>
      </trkpt>
      <trkpt lat="43.30044" lon="2.48276">
        <ele>231.4</ele>
        <time>2021-05-16T07:02:55Z</time>
      </trkpt>
      <trkpt lat="43.30065" lon="2.48254">
        <ele>232.56</ele>
        <time>2021-05-16T07:03:08Z</time>
      </trkpt>
      <trkpt lat="43.30082" lon="2.48234">
        <ele>233.06</ele>
        <time>2021-05-16T07:03:19Z</time>
      </trkpt>
      <trkpt lat="43.30102" lon="2.48228">
        <ele>231.07</ele>
        <time>2021-05-16T07:03:32Z</time>
      </trkpt>
      <trkpt lat="43.3012" lon="2.48241">
        <ele>230.3</ele>
        <time>2021-05-16T07:03:42Z</time>
      </trkpt>
      <trkpt lat="43.3014" lon="2.48244">
        <ele>229.89</ele>
        <time>2021-05-16T07:04:13Z</time>
      </trkpt>
      <trkpt lat="43.30153" lon="2.48224">
        <ele>229.31</ele>
        <time>2021-05-16T07:04:29Z</time>
      </trkpt>
      <trkpt lat="43.30165" lon="2.48197">
        <ele>231.78</ele>
        <time>2021-05-16T07:04:55Z</time>
      </trkpt>
      <trkpt lat="43.30166" lon="2.48201">
        <ele>234.84</ele>
        <time>2021-05-16T07:06:23Z</time>
      </trkpt>
      <trkpt lat="43.30169" lon="2.48198">
        <ele>232.25</ele>
        <time>2021-05-16T07:07:14Z</time>
      </trkpt>
      <trkpt lat="43.30156" lon="2.48213">
        <ele>231.37</ele>
        <time>2021-05-16T07:07:37Z</time>
      </trkpt>
      <trkpt lat="43.3015" lon="2.48237">
        <ele>229.91</ele>
        <time>2021-05-16T07:07:47Z</time>
      </trkpt>
      <trkpt lat="43.30144" lon="2.48261">
        <ele>228.92</ele>
        <time>2021-05-16T07:07:56Z</time>
      </trkpt>
      <trkpt lat="43.3013" lon="2.48281">
        <ele>227.9</ele>
        <time>2021-05-16T07:08:05Z</time>
      </trkpt>
      <trkpt lat="43.30113" lon="2.48294">
        <ele>226.48</ele>
        <time>2021-05-16T07:08:13Z</time>
      </trkpt>
      <trkpt lat="43.30095" lon="2.48301">
        <ele>226.01</ele>
        <time>2021-05-16T07:08:22Z</time>
      </trkpt>
      <trkpt lat="43.30093" lon="2.48324">
        <ele>225.98</ele>
        <time>2021-05-16T07:08:30Z</time>
      </trkpt>
      <trkpt lat="43.30094" lon="2.4835">
        <ele>224.65</ele>
        <time>2021-05-16T07:08:38Z</time>
      </trkpt>
      <trkpt lat="43.30088" lon="2.48378">
        <ele>223.61</ele>
        <time>2021-05-16T07:08:48Z</time>
      </trkpt>
      <trkpt lat="43.30071" lon="2.48394">
        <ele>223.89</ele>
        <time>2021-05-16T07:08:58Z</time>
      </trkpt>
      <trkpt lat="43.30054" lon="2.48412">
        <ele>224.1</ele>
        <time>2021-05-16T07:09:10Z</time>
      </trkpt>
      <trkpt lat="43.30037" lon="2.48433">
        <ele>224.11</ele>
        <time>2021-05-16T07:09:27Z</time>
      </trkpt>
      <trkpt lat="43.30024" lon="2.48455">
        <ele>224.3</ele>
        <time>2021-05-16T07:09:36Z</time>
      </trkpt>
      <trkpt lat="43.30007" lon="2.48473">
        <ele>225.51</ele>
        <time>2021-05-16T07:09:50Z</time>
      </trkpt>
      <trkpt lat="43.29987" lon="2.48483">
        <ele>226.03</ele>
        <time>2021-05-16T07:10:00Z</time>
      </trkpt>
      <trkpt lat="43.29968" lon="2.48492">
        <ele>224.69</ele>
        <time>2021-05-16T07:10:09Z</time>
      </trkpt>
      <trkpt lat="43.29949" lon="2.48503">
        <ele>223.1</ele>
        <time>2021-05-16T07:10:17Z</time>
      </trkpt>
      <trkpt lat="43.29937" lon="2.48522">
        <ele>221.77</ele>
        <time>2021-05-16T07:10:25Z</time>
      </trkpt>
      <trkpt lat="43.29924" lon="2.48544">
        <ele>220.26</ele>
        <time>2021-05-16T07:10:34Z</time>
      </trkpt>
      <trkpt lat="43.29912" lon="2.4857">
        <ele>218.09</ele>
        <time>2021-05-16T07:10:47Z</time>
      </trkpt>
      <trkpt lat="43.29906" lon="2.48594">
        <ele>216.82</ele>
        <time>2021-05-16T07:10:54Z</time>
      </trkpt>
      <trkpt lat="43.29903" lon="2.48619">
        <ele>215.64</ele>
        <time>2021-05-16T07:11:01Z</time>
      </trkpt>
      <trkpt lat="43.29904" lon="2.48648">
        <ele>214.47</ele>
        <time>2021-05-16T07:11:10Z</time>
      </trkpt>
      <trkpt lat="43.2991" lon="2.48675">
        <ele>213.97</ele>
        <time>2021-05-16T07:11:18Z</time>
      </trkpt>
      <trkpt lat="43.29921" lon="2.48701">
        <ele>213.91</ele>
        <time>2021-05-16T07:11:27Z</time>
      </trkpt>
      <trkpt lat="43.29929" lon="2.48729">
        <ele>214.03</ele>
        <time>2021-05-16T07:11:36Z</time>
      </trkpt>
      <trkpt lat="43.29937" lon="2.48758">
        <ele>214.22</ele>
        <time>2021-05-16T07:11:44Z</time>
      </trkpt>
      <trkpt lat="43.29939" lon="2.48789">
        <ele>214.14</ele>
        <time>2021-05-16T07:11:52Z</time>
      </trkpt>
      <trkpt lat="43.29936" lon="2.48818">
        <ele>213.92</ele>
        <time>2021-05-16T07:12:03Z</time>
      </trkpt>
      <trkpt lat="43.29935" lon="2.48853">
        <ele>213.3</ele>
        <time>2021-05-16T07:12:14Z</time>
      </trkpt>
      <trkpt lat="43.29931" lon="2.4888">
        <ele>212.04</ele>
        <time>2021-05-16T07:12:23Z</time>
      </trkpt>
      <trkpt lat="43.29915" lon="2.48891">
        <ele>210.84</ele>
        <time>2021-05-16T07:12:34Z</time>
      </trkpt>
      <trkpt lat="43.29894" lon="2.48892">
        <ele>211.58</ele>
        <time>2021-05-16T07:12:46Z</time>
      </trkpt>
      <trkpt lat="43.29872" lon="2.48889">
        <ele>212.6</ele>
        <time>2021-05-16T07:12:58Z</time>
      </trkpt>
      <trkpt lat="43.29851" lon="2.48891">
        <ele>212.7</ele>
        <time>2021-05-16T07:13:09Z</time>
      </trkpt>
      <trkpt lat="43.29827" lon="2.48886">
        <ele>212.58</ele>
        <time>2021-05-16T07:13:19Z</time>
      </trkpt>
      <trkpt lat="43.29805" lon="2.48887">
        <ele>212.79</ele>
        <time>2021-05-16T07:13:28Z</time>
      </trkpt>
      <trkpt lat="43.29784" lon="2.48888">
        <ele>213.34</ele>
        <time>2021-05-16T07:13:38Z</time>
      </trkpt>
      <trkpt lat="43.29761" lon="2.48895">
        <ele>214.24</ele>
        <time>2021-05-16T07:13:50Z</time>
      </trkpt>
      <trkpt lat="43.29742" lon="2.48909">
        <ele>216.17</ele>
        <time>2021-05-16T07:14:02Z</time>
      </trkpt>
      <trkpt lat="43.29721" lon="2.48909">
        <ele>217.99</ele>
        <time>2021-05-16T07:14:20Z</time>
      </trkpt>
      <trkpt lat="43.29705" lon="2.48894">
        <ele>219.85</ele>
        <time>2021-05-16T07:14:38Z</time>
      </trkpt>
      <trkpt lat="43.29683" lon="2.48887">
        <ele>224.5</ele>
        <time>2021-05-16T07:15:04Z</time>
      </trkpt>
      <trkpt lat="43.29656" lon="2.48886">
        <ele>226.87</ele>
        <time>2021-05-16T07:15:24Z</time>
      </trkpt>
      <trkpt lat="43.2964" lon="2.48868">
        <ele>227.3</ele>
        <time>2021-05-16T07:15:34Z</time>
      </trkpt>
      <trkpt lat="43.2962" lon="2.48869">
        <ele>226.42</ele>
        <time>2021-05-16T07:15:43Z</time>
      </trkpt>
      <trkpt lat="43.29599" lon="2.48864">
        <ele>224.96</ele>
        <time>2021-05-16T07:15:52Z</time>
      </trkpt>
      <trkpt lat="43.29581" lon="2.48857">
        <ele>222.59</ele>
        <time>2021-05-16T07:16:02Z</time>
      </trkpt>
      <trkpt lat="43.29587" lon="2.48843">
        <ele>221.75</ele>
        <time>2021-05-16T07:16:12Z</time>
      </trkpt>
      <trkpt lat="43.29599" lon="2.48824">
        <ele>221.41</ele>
        <time>2021-05-16T07:16:22Z</time>
      </trkpt>
      <trkpt lat="43.29603" lon="2.488">
        <ele>221.19</ele>
        <time>2021-05-16T07:16:31Z</time>
      </trkpt>
      <trkpt lat="43.29604" lon="2.48797">
        <ele>221.15</ele>
        <time>2021-05-16T07:16:32Z</time>
      </trkpt>
      <trkpt lat="43.29598" lon="2.48767">
        <ele>220.77</ele>
        <time>2021-05-16T07:16:42Z</time>
      </trkpt>
      <trkpt lat="43.29606" lon="2.48721">
        <ele>223.77</ele>
        <time>2021-05-16T07:17:02Z</time>
      </trkpt>
      <trkpt lat="43.29603" lon="2.48679">
        <ele>226.1</ele>
        <time>2021-05-16T07:17:23Z</time>
      </trkpt>
      <trkpt lat="43.29592" lon="2.48644">
        <ele>227.07</ele>
        <time>2021-05-16T07:17:38Z</time>
      </trkpt>
      <trkpt lat="43.29583" lon="2.48617">
        <ele>226.81</ele>
        <time>2021-05-16T07:17:51Z</time>
      </trkpt>
      <trkpt lat="43.29586" lon="2.4859">
        <ele>226.17</ele>
        <time>2021-05-16T07:18:01Z</time>
      </trkpt>
      <trkpt lat="43.29601" lon="2.48576">
        <ele>225.78</ele>
        <time>2021-05-16T07:18:11Z</time>
      </trkpt>
      <trkpt lat="43.29615" lon="2.48558">
        <ele>225.09</ele>
        <time>2021-05-16T07:18:20Z</time>
      </trkpt>
      <trkpt lat="43.29629" lon="2.48558">
        <ele>225.28</ele>
        <time>2021-05-16T07:18:30Z</time>
      </trkpt>
      <trkpt lat="43.29651" lon="2.4856">
        <ele>227.75</ele>
        <time>2021-05-16T07:18:43Z</time>
      </trkpt>
      <trkpt lat="43.29668" lon="2.48551">
        <ele>227.97</ele>
        <time>2021-05-16T07:18:55Z</time>
      </trkpt>
      <trkpt lat="43.29686" lon="2.4853">
        <ele>225.5</ele>
        <time>2021-05-16T07:19:04Z</time>
      </trkpt>
      <trkpt lat="43.29696" lon="2.48503">
        <ele>223.52</ele>
        <time>2021-05-16T07:19:13Z</time>
      </trkpt>
      <trkpt lat="43.29682" lon="2.48478">
        <ele>222.96</ele>
        <time>2021-05-16T07:19:22Z</time>
      </trkpt>
      <trkpt lat="43.29664" lon="2.48458">
        <ele>221.36</ele>
        <time>2021-05-16T07:19:30Z</time>
      </trkpt>
      <trkpt lat="43.29645" lon="2.48439">
        <ele>219.82</ele>
        <time>2021-05-16T07:19:39Z</time>
      </trkpt>
      <trkpt lat="43.29622" lon="2.48425">
        <ele>218.16</ele>
        <time>2021-05-16T07:20:03Z</time>
      </trkpt>
      <trkpt lat="43.29602" lon="2.48424">
        <ele>216.9</ele>
        <time>2021-05-16T07:20:13Z</time>
      </trkpt>
      <trkpt lat="43.29591" lon="2.48404">
        <ele>215.63</ele>
        <time>2021-05-16T07:20:24Z</time>
      </trkpt>
      <trkpt lat="43.29591" lon="2.48379">
        <ele>215.21</ele>
        <time>2021-05-16T07:20:35Z</time>
      </trkpt>
      <trkpt lat="43.2958" lon="2.48358">
        <ele>214.86</ele>
        <time>2021-05-16T07:20:44Z</time>
      </trkpt>
      <trkpt lat="43.2956" lon="2.4834">
        <ele>215.39</ele>
        <time>2021-05-16T07:20:55Z</time>
      </trkpt>
      <trkpt lat="43.29539" lon="2.48334">
        <ele>218.2</ele>
        <time>2021-05-16T07:21:08Z</time>
      </trkpt>
      <trkpt lat="43.29519" lon="2.48343">
        <ele>217.94</ele>
        <time>2021-05-16T07:21:18Z</time>
      </trkpt>
      <trkpt lat="43.29503" lon="2.48359">
        <ele>216.88</ele>
        <time>2021-05-16T07:21:27Z</time>
      </trkpt>
      <trkpt lat="43.29486" lon="2.48377">
        <ele>215.31</ele>
        <time>2021-05-16T07:21:36Z</time>
      </trkpt>
      <trkpt lat="43.29471" lon="2.48397">
        <ele>213.82</ele>
        <time>2021-05-16T07:21:45Z</time>
      </trkpt>
      <trkpt lat="43.2946" lon="2.48423">
        <ele>211.66</ele>
        <time>2021-05-16T07:21:55Z</time>
      </trkpt>
      <trkpt lat="43.29452" lon="2.48451">
        <ele>210.51</ele>
        <time>2021-05-16T07:22:04Z</time>
      </trkpt>
      <trkpt lat="43.29446" lon="2.4848">
        <ele>208.85</ele>
        <time>2021-05-16T07:22:13Z</time>
      </trkpt>
      <trkpt lat="43.2943" lon="2.485">
        <ele>206.94</ele>
        <time>2021-05-16T07:22:22Z</time>
      </trkpt>
      <trkpt lat="43.29417" lon="2.4852">
        <ele>204.88</ele>
        <time>2021-05-16T07:22:31Z</time>
      </trkpt>
      <trkpt lat="43.29405" lon="2.48544">
        <ele>202.49</ele>
        <time>2021-05-16T07:22:40Z</time>
      </trkpt>
      <trkpt lat="43.29394" lon="2.48569">
        <ele>200.24</ele>
        <time>2021-05-16T07:22:48Z</time>
      </trkpt>
      <trkpt lat="43.29383" lon="2.48594">
        <ele>199.27</ele>
        <time>2021-05-16T07:22:56Z</time>
      </trkpt>
      <trkpt lat="43.29372" lon="2.48618">
        <ele>198.49</ele>
        <time>2021-05-16T07:23:04Z</time>
      </trkpt>
      <trkpt lat="43.29361" lon="2.48643">
        <ele>197.44</ele>
        <time>2021-05-16T07:23:12Z</time>
      </trkpt>
      <trkpt lat="43.2935" lon="2.48667">
        <ele>196.19</ele>
        <time>2021-05-16T07:23:20Z</time>
      </trkpt>
      <trkpt lat="43.2934" lon="2.48689">
        <ele>195.21</ele>
        <time>2021-05-16T07:23:27Z</time>
      </trkpt>
      <trkpt lat="43.29329" lon="2.48712">
        <ele>194.31</ele>
        <time>2021-05-16T07:23:35Z</time>
      </trkpt>
      <trkpt lat="43.29322" lon="2.48729">
        <ele>193.45</ele>
        <time>2021-05-16T07:23:41Z</time>
      </trkpt>
      <trkpt lat="43.29317" lon="2.48738">
        <ele>193.19</ele>
        <time>2021-05-16T07:23:44Z</time>
      </trkpt>
      <trkpt lat="43.29307" lon="2.48761">
        <ele>192.46</ele>
        <time>2021-05-16T07:23:52Z</time>
      </trkpt>
      <trkpt lat="43.29297" lon="2.48783">
        <ele>192.03</ele>
        <time>2021-05-16T07:23:59Z</time>
      </trkpt>
      <trkpt lat="43.29287" lon="2.48807">
        <ele>191.66</ele>
        <time>2021-05-16T07:24:07Z</time>
      </trkpt>
      <trkpt lat="43.29272" lon="2.4882">
        <ele>190.84</ele>
        <time>2021-05-16T07:24:18Z</time>
      </trkpt>
      <trkpt lat="43.29253" lon="2.48828">
        <ele>190.84</ele>
        <time>2021-05-16T07:24:29Z</time>
      </trkpt>
      <trkpt lat="43.29232" lon="2.48838">
        <ele>191.02</ele>
        <time>2021-05-16T07:24:41Z</time>
      </trkpt>
      <trkpt lat="43.29211" lon="2.48849">
        <ele>190.89</ele>
        <time>2021-05-16T07:24:51Z</time>
      </trkpt>
      <trkpt lat="43.29191" lon="2.48855">
        <ele>190.72</ele>
        <time>2021-05-16T07:25:00Z</time>
      </trkpt>
      <trkpt lat="43.29173" lon="2.48845">
        <ele>190.05</ele>
        <time>2021-05-16T07:25:09Z</time>
      </trkpt>
      <trkpt lat="43.29153" lon="2.48844">
        <ele>189.38</ele>
        <time>2021-05-16T07:25:18Z</time>
      </trkpt>
      <trkpt lat="43.29141" lon="2.48865">
        <ele>188.52</ele>
        <time>2021-05-16T07:25:27Z</time>
      </trkpt>
      <trkpt lat="43.29124" lon="2.4888">
        <ele>186.83</ele>
        <time>2021-05-16T07:25:43Z</time>
      </trkpt>
      <trkpt lat="43.29106" lon="2.48866">
        <ele>186.22</ele>
        <time>2021-05-16T07:25:58Z</time>
      </trkpt>
      <trkpt lat="43.29086" lon="2.48857">
        <ele>186.18</ele>
        <time>2021-05-16T07:26:12Z</time>
      </trkpt>
      <trkpt lat="43.29065" lon="2.48865">
        <ele>185.36</ele>
        <time>2021-05-16T07:26:24Z</time>
      </trkpt>
      <trkpt lat="43.29044" lon="2.48888">
        <ele>182.42</ele>
        <time>2021-05-16T07:26:41Z</time>
      </trkpt>
      <trkpt lat="43.2902" lon="2.48912">
        <ele>179.77</ele>
        <time>2021-05-16T07:27:02Z</time>
      </trkpt>
      <trkpt lat="43.28995" lon="2.48916">
        <ele>177.76</ele>
        <time>2021-05-16T07:27:20Z</time>
      </trkpt>
      <trkpt lat="43.28975" lon="2.48905">
        <ele>176.78</ele>
        <time>2021-05-16T07:27:28Z</time>
      </trkpt>
      <trkpt lat="43.28955" lon="2.48891">
        <ele>175.85</ele>
        <time>2021-05-16T07:27:38Z</time>
      </trkpt>
      <trkpt lat="43.28934" lon="2.48881">
        <ele>175.01</ele>
        <time>2021-05-16T07:27:48Z</time>
      </trkpt>
      <trkpt lat="43.28912" lon="2.48869">
        <ele>173.63</ele>
        <time>2021-05-16T07:27:59Z</time>
      </trkpt>
      <trkpt lat="43.289" lon="2.48844">
        <ele>172.22</ele>
        <time>2021-05-16T07:28:18Z</time>
      </trkpt>
      <trkpt lat="43.28889" lon="2.48817">
        <ele>171.05</ele>
        <time>2021-05-16T07:28:31Z</time>
      </trkpt>
      <trkpt lat="43.28878" lon="2.48792">
        <ele>170.21</ele>
        <time>2021-05-16T07:28:41Z</time>
      </trkpt>
      <trkpt lat="43.28868" lon="2.48763">
        <ele>169.07</ele>
        <time>2021-05-16T07:28:50Z</time>
      </trkpt>
      <trkpt lat="43.28855" lon="2.48737">
        <ele>167.7</ele>
        <time>2021-05-16T07:29:03Z</time>
      </trkpt>
      <trkpt lat="43.28835" lon="2.48703">
        <ele>166.38</ele>
        <time>2021-05-16T07:29:17Z</time>
      </trkpt>
      <trkpt lat="43.28812" lon="2.48676">
        <ele>164.77</ele>
        <time>2021-05-16T07:29:32Z</time>
      </trkpt>
      <trkpt lat="43.28805" lon="2.48641">
        <ele>161.7</ele>
        <time>2021-05-16T07:29:46Z</time>
      </trkpt>
      <trkpt lat="43.28794" lon="2.486">
        <ele>160.39</ele>
        <time>2021-05-16T07:30:02Z</time>
      </trkpt>
      <trkpt lat="43.28789" lon="2.4855">
        <ele>158.81</ele>
        <time>2021-05-16T07:30:18Z</time>
      </trkpt>
      <trkpt lat="43.28787" lon="2.48511">
        <ele>158.23</ele>
        <time>2021-05-16T07:30:27Z</time>
      </trkpt>
      <trkpt lat="43.28787" lon="2.4847">
        <ele>157.37</ele>
        <time>2021-05-16T07:30:36Z</time>
      </trkpt>
      <trkpt lat="43.28781" lon="2.48445">
        <ele>156.66</ele>
        <time>2021-05-16T07:30:51Z</time>
      </trkpt>
      <trkpt lat="43.28765" lon="2.4844">
        <ele>155.8</ele>
        <time>2021-05-16T07:31:27Z</time>
      </trkpt>
      <trkpt lat="43.28746" lon="2.48451">
        <ele>155</ele>
        <time>2021-05-16T07:31:40Z</time>
      </trkpt>
      <trkpt lat="43.28744" lon="2.48452">
        <ele>154.96</ele>
        <time>2021-05-16T07:31:41Z</time>
      </trkpt>
      <trkpt lat="43.28728" lon="2.48477">
        <ele>154.74</ele>
        <time>2021-05-16T07:31:53Z</time>
      </trkpt>
      <trkpt lat="43.28708" lon="2.48505">
        <ele>155.56</ele>
        <time>2021-05-16T07:32:07Z</time>
      </trkpt>
      <trkpt lat="43.28691" lon="2.48541">
        <ele>158.75</ele>
        <time>2021-05-16T07:32:21Z</time>
      </trkpt>
      <trkpt lat="43.28683" lon="2.48554">
        <ele>160.45</ele>
        <time>2021-05-16T07:32:36Z</time>
      </trkpt>
      <trkpt lat="43.28664" lon="2.4854">
        <ele>159.95</ele>
        <time>2021-05-16T07:32:52Z</time>
      </trkpt>
      <trkpt lat="43.28646" lon="2.48502">
        <ele>159.32</ele>
        <time>2021-05-16T07:33:11Z</time>
      </trkpt>
      <trkpt lat="43.28629" lon="2.48469">
        <ele>158.61</ele>
        <time>2021-05-16T07:33:22Z</time>
      </trkpt>
      <trkpt lat="43.28607" lon="2.48432">
        <ele>157.51</ele>
        <time>2021-05-16T07:33:34Z</time>
      </trkpt>
      <trkpt lat="43.28592" lon="2.48406">
        <ele>156.85</ele>
        <time>2021-05-16T07:33:43Z</time>
      </trkpt>
      <trkpt lat="43.28578" lon="2.48373">
        <ele>156.79</ele>
        <time>2021-05-16T07:33:54Z</time>
      </trkpt>
      <trkpt lat="43.28561" lon="2.48343">
        <ele>156.67</ele>
        <time>2021-05-16T07:34:05Z</time>
      </trkpt>
      <trkpt lat="43.28544" lon="2.48312">
        <ele>156.47</ele>
        <time>2021-05-16T07:34:19Z</time>
      </trkpt>
      <trkpt lat="43.28526" lon="2.48273">
        <ele>154.63</ele>
        <time>2021-05-16T07:34:30Z</time>
      </trkpt>
      <trkpt lat="43.28523" lon="2.48234">
        <ele>151.21</ele>
        <time>2021-05-16T07:34:41Z</time>
      </trkpt>
      <trkpt lat="43.28517" lon="2.48187">
        <ele>147.28</ele>
        <time>2021-05-16T07:34:52Z</time>
      </trkpt>
      <trkpt lat="43.28507" lon="2.48151">
        <ele>146</ele>
        <time>2021-05-16T07:35:25Z</time>
      </trkpt>
      <trkpt lat="43.28495" lon="2.48129">
        <ele>145.54</ele>
        <time>2021-05-16T07:35:54Z</time>
      </trkpt>
      <trkpt lat="43.28476" lon="2.48107">
        <ele>146.4</ele>
        <time>2021-05-16T07:36:06Z</time>
      </trkpt>
      <trkpt lat="43.28454" lon="2.48094">
        <ele>147.35</ele>
        <time>2021-05-16T07:36:17Z</time>
      </trkpt>
      <trkpt lat="43.28429" lon="2.4808">
        <ele>149.53</ele>
        <time>2021-05-16T07:36:32Z</time>
      </trkpt>
      <trkpt lat="43.28408" lon="2.48089">
        <ele>151.66</ele>
        <time>2021-05-16T07:36:46Z</time>
      </trkpt>
      <trkpt lat="43.28387" lon="2.48106">
        <ele>152.59</ele>
        <time>2021-05-16T07:37:01Z</time>
      </trkpt>
      <trkpt lat="43.2837" lon="2.48113">
        <ele>153.5</ele>
        <time>2021-05-16T07:37:14Z</time>
      </trkpt>
      <trkpt lat="43.2835" lon="2.48128">
        <ele>153.37</ele>
        <time>2021-05-16T07:37:24Z</time>
      </trkpt>
      <trkpt lat="43.28331" lon="2.4814">
        <ele>151.83</ele>
        <time>2021-05-16T07:37:32Z</time>
      </trkpt>
      <trkpt lat="43.28312" lon="2.48156">
        <ele>149.33</ele>
        <time>2021-05-16T07:37:40Z</time>
      </trkpt>
      <trkpt lat="43.28293" lon="2.48171">
        <ele>146.81</ele>
        <time>2021-05-16T07:37:48Z</time>
      </trkpt>
      <trkpt lat="43.28276" lon="2.48186">
        <ele>145.1</ele>
        <time>2021-05-16T07:37:55Z</time>
      </trkpt>
      <trkpt lat="43.28258" lon="2.48197">
        <ele>142.39</ele>
        <time>2021-05-16T07:38:03Z</time>
      </trkpt>
      <trkpt lat="43.28255" lon="2.48222">
        <ele>140.02</ele>
        <time>2021-05-16T07:38:10Z</time>
      </trkpt>
      <trkpt lat="43.28255" lon="2.48252">
        <ele>137.5</ele>
        <time>2021-05-16T07:38:18Z</time>
      </trkpt>
      <trkpt lat="43.28256" lon="2.48281">
        <ele>135.68</ele>
        <time>2021-05-16T07:38:26Z</time>
      </trkpt>
      <trkpt lat="43.28238" lon="2.48287">
        <ele>134.02</ele>
        <time>2021-05-16T07:38:40Z</time>
      </trkpt>
      <trkpt lat="43.28225" lon="2.48283">
        <ele>134.77</ele>
        <time>2021-05-16T07:39:14Z</time>
      </trkpt>
      <trkpt lat="43.28224" lon="2.4827">
        <ele>135.21</ele>
        <time>2021-05-16T07:39:45Z</time>
      </trkpt>
      <trkpt lat="43.28215" lon="2.48272">
        <ele>134.51</ele>
        <time>2021-05-16T07:39:54Z</time>
      </trkpt>
      <trkpt lat="43.28217" lon="2.48282">
        <ele>133.55</ele>
        <time>2021-05-16T07:40:16Z</time>
      </trkpt>
      <trkpt lat="43.28242" lon="2.48292">
        <ele>133.54</ele>
        <time>2021-05-16T07:40:32Z</time>
      </trkpt>
      <trkpt lat="43.28262" lon="2.48266">
        <ele>134.44</ele>
        <time>2021-05-16T07:40:49Z</time>
      </trkpt>
      <trkpt lat="43.28263" lon="2.48237">
        <ele>135.76</ele>
        <time>2021-05-16T07:41:01Z</time>
      </trkpt>
      <trkpt lat="43.28262" lon="2.48207">
        <ele>137.95</ele>
        <time>2021-05-16T07:41:13Z</time>
      </trkpt>
      <trkpt lat="43.28263" lon="2.48169">
        <ele>140.31</ele>
        <time>2021-05-16T07:41:28Z</time>
      </trkpt>
      <trkpt lat="43.28265" lon="2.48134">
        <ele>141.61</ele>
        <time>2021-05-16T07:41:39Z</time>
      </trkpt>
      <trkpt lat="43.2827" lon="2.48099">
        <ele>142.54</ele>
        <time>2021-05-16T07:41:51Z</time>
      </trkpt>
      <trkpt lat="43.28272" lon="2.48066">
        <ele>143.82</ele>
        <time>2021-05-16T07:42:03Z</time>
      </trkpt>
      <trkpt lat="43.28275" lon="2.48035">
        <ele>145.17</ele>
        <time>2021-05-16T07:42:13Z</time>
      </trkpt>
      <trkpt lat="43.28279" lon="2.48002">
        <ele>145.75</ele>
        <time>2021-05-16T07:42:23Z</time>
      </trkpt>
      <trkpt lat="43.28283" lon="2.47968">
        <ele>145.82</ele>
        <time>2021-05-16T07:42:33Z</time>
      </trkpt>
      <trkpt lat="43.28286" lon="2.47935">
        <ele>146.35</ele>
        <time>2021-05-16T07:42:42Z</time>
      </trkpt>
      <trkpt lat="43.28287" lon="2.47904">
        <ele>147.24</ele>
        <time>2021-05-16T07:42:51Z</time>
      </trkpt>
      <trkpt lat="43.28288" lon="2.47871">
        <ele>148.31</ele>
        <time>2021-05-16T07:43:00Z</time>
      </trkpt>
      <trkpt lat="43.2829" lon="2.47839">
        <ele>149.03</ele>
        <time>2021-05-16T07:43:09Z</time>
      </trkpt>
      <trkpt lat="43.28291" lon="2.47809">
        <ele>149.87</ele>
        <time>2021-05-16T07:43:18Z</time>
      </trkpt>
      <trkpt lat="43.2829" lon="2.47764">
        <ele>150.75</ele>
        <time>2021-05-16T07:43:31Z</time>
      </trkpt>
      <trkpt lat="43.28286" lon="2.4773">
        <ele>151.47</ele>
        <time>2021-05-16T07:43:50Z</time>
      </trkpt>
      <trkpt lat="43.28266" lon="2.47659">
        <ele>151.72</ele>
        <time>2021-05-16T07:44:25Z</time>
      </trkpt>
      <trkpt lat="43.28246" lon="2.47662">
        <ele>150.67</ele>
        <time>2021-05-16T07:44:57Z</time>
      </trkpt>
      <trkpt lat="43.28223" lon="2.47677">
        <ele>149.54</ele>
        <time>2021-05-16T07:45:22Z</time>
      </trkpt>
      <trkpt lat="43.28196" lon="2.47684">
        <ele>149.32</ele>
        <time>2021-05-16T07:45:35Z</time>
      </trkpt>
      <trkpt lat="43.28171" lon="2.47695">
        <ele>150.2</ele>
        <time>2021-05-16T07:46:05Z</time>
      </trkpt>
      <trkpt lat="43.28165" lon="2.4768">
        <ele>150.13</ele>
        <time>2021-05-16T07:46:55Z</time>
      </trkpt>
      <trkpt lat="43.2817" lon="2.4765">
        <ele>150.26</ele>
        <time>2021-05-16T07:47:14Z</time>
      </trkpt>
      <trkpt lat="43.28173" lon="2.47615">
        <ele>151.48</ele>
        <time>2021-05-16T07:47:31Z</time>
      </trkpt>
      <trkpt lat="43.28176" lon="2.47575">
        <ele>152.65</ele>
        <time>2021-05-16T07:47:46Z</time>
      </trkpt>
      <trkpt lat="43.28176" lon="2.4754">
        <ele>154.11</ele>
        <time>2021-05-16T07:47:56Z</time>
      </trkpt>
      <trkpt lat="43.28175" lon="2.47504">
        <ele>155.7</ele>
        <time>2021-05-16T07:48:06Z</time>
      </trkpt>
      <trkpt lat="43.28175" lon="2.47472">
        <ele>157.17</ele>
        <time>2021-05-16T07:48:15Z</time>
      </trkpt>
      <trkpt lat="43.28174" lon="2.4744">
        <ele>159.19</ele>
        <time>2021-05-16T07:48:25Z</time>
      </trkpt>
      <trkpt lat="43.28174" lon="2.47412">
        <ele>160.86</ele>
        <time>2021-05-16T07:48:35Z</time>
      </trkpt>
      <trkpt lat="43.28174" lon="2.47399">
        <ele>161.67</ele>
        <time>2021-05-16T07:48:39Z</time>
      </trkpt>
      <trkpt lat="43.28173" lon="2.47379">
        <ele>162.9</ele>
        <time>2021-05-16T07:48:46Z</time>
      </trkpt>
      <trkpt lat="43.28175" lon="2.4735">
        <ele>164.59</ele>
        <time>2021-05-16T07:49:06Z</time>
      </trkpt>
      <trkpt lat="43.28177" lon="2.47317">
        <ele>164.54</ele>
        <time>2021-05-16T07:49:20Z</time>
      </trkpt>
      <trkpt lat="43.28177" lon="2.47285">
        <ele>164.67</ele>
        <time>2021-05-16T07:49:32Z</time>
      </trkpt>
      <trkpt lat="43.28177" lon="2.47252">
        <ele>165.01</ele>
        <time>2021-05-16T07:49:42Z</time>
      </trkpt>
      <trkpt lat="43.28177" lon="2.47215">
        <ele>166.03</ele>
        <time>2021-05-16T07:49:53Z</time>
      </trkpt>
      <trkpt lat="43.28176" lon="2.47185">
        <ele>167.36</ele>
        <time>2021-05-16T07:50:02Z</time>
      </trkpt>
      <trkpt lat="43.28172" lon="2.47141">
        <ele>170.43</ele>
        <time>2021-05-16T07:50:17Z</time>
      </trkpt>
      <trkpt lat="43.28164" lon="2.47108">
        <ele>172.1</ele>
        <time>2021-05-16T07:50:29Z</time>
      </trkpt>
      <trkpt lat="43.28155" lon="2.47084">
        <ele>173.39</ele>
        <time>2021-05-16T07:50:37Z</time>
      </trkpt>
      <trkpt lat="43.28146" lon="2.47056">
        <ele>174.24</ele>
        <time>2021-05-16T07:50:45Z</time>
      </trkpt>
      <trkpt lat="43.28139" lon="2.47028">
        <ele>174.87</ele>
        <time>2021-05-16T07:50:53Z</time>
      </trkpt>
      <trkpt lat="43.28132" lon="2.47002">
        <ele>175.38</ele>
        <time>2021-05-16T07:51:02Z</time>
      </trkpt>
      <trkpt lat="43.28123" lon="2.46974">
        <ele>176.16</ele>
        <time>2021-05-16T07:51:11Z</time>
      </trkpt>
      <trkpt lat="43.28106" lon="2.46952">
        <ele>176.67</ele>
        <time>2021-05-16T07:51:21Z</time>
      </trkpt>
      <trkpt lat="43.28096" lon="2.46921">
        <ele>176.43</ele>
        <time>2021-05-16T07:51:30Z</time>
      </trkpt>
      <trkpt lat="43.28092" lon="2.46895">
        <ele>176.88</ele>
        <time>2021-05-16T07:51:39Z</time>
      </trkpt>
      <trkpt lat="43.28085" lon="2.46871">
        <ele>177.02</ele>
        <time>2021-05-16T07:51:47Z</time>
      </trkpt>
      <trkpt lat="43.28079" lon="2.46845">
        <ele>177.15</ele>
        <time>2021-05-16T07:51:54Z</time>
      </trkpt>
      <trkpt lat="43.28073" lon="2.46819">
        <ele>177.3</ele>
        <time>2021-05-16T07:52:03Z</time>
      </trkpt>
      <trkpt lat="43.28067" lon="2.46794">
        <ele>177.19</ele>
        <time>2021-05-16T07:52:12Z</time>
      </trkpt>
      <trkpt lat="43.28057" lon="2.46763">
        <ele>177.04</ele>
        <time>2021-05-16T07:52:28Z</time>
      </trkpt>
      <trkpt lat="43.28059" lon="2.46745">
        <ele>176.63</ele>
        <time>2021-05-16T07:53:17Z</time>
      </trkpt>
      <trkpt lat="43.28067" lon="2.46721">
        <ele>177.17</ele>
        <time>2021-05-16T07:53:24Z</time>
      </trkpt>
      <trkpt lat="43.28075" lon="2.467">
        <ele>177.47</ele>
        <time>2021-05-16T07:53:31Z</time>
      </trkpt>
      <trkpt lat="43.28085" lon="2.46676">
        <ele>177.75</ele>
        <time>2021-05-16T07:53:38Z</time>
      </trkpt>
      <trkpt lat="43.28097" lon="2.46656">
        <ele>177.9</ele>
        <time>2021-05-16T07:53:45Z</time>
      </trkpt>
      <trkpt lat="43.28109" lon="2.46635">
        <ele>178.5</ele>
        <time>2021-05-16T07:53:53Z</time>
      </trkpt>
      <trkpt lat="43.28119" lon="2.4661">
        <ele>179.62</ele>
        <time>2021-05-16T07:54:01Z</time>
      </trkpt>
      <trkpt lat="43.2813" lon="2.46583">
        <ele>179.62</ele>
        <time>2021-05-16T07:54:09Z</time>
      </trkpt>
      <trkpt lat="43.28133" lon="2.46554">
        <ele>178.98</ele>
        <time>2021-05-16T07:54:18Z</time>
      </trkpt>
      <trkpt lat="43.28133" lon="2.46524">
        <ele>178.88</ele>
        <time>2021-05-16T07:54:27Z</time>
      </trkpt>
      <trkpt lat="43.28133" lon="2.46498">
        <ele>179.03</ele>
        <time>2021-05-16T07:54:36Z</time>
      </trkpt>
      <trkpt lat="43.28131" lon="2.46469">
        <ele>179.27</ele>
        <time>2021-05-16T07:54:47Z</time>
      </trkpt>
      <trkpt lat="43.28116" lon="2.46413">
        <ele>181.06</ele>
        <time>2021-05-16T07:55:13Z</time>
      </trkpt>
      <trkpt lat="43.28108" lon="2.4638">
        <ele>183.34</ele>
        <time>2021-05-16T07:55:35Z</time>
      </trkpt>
      <trkpt lat="43.28093" lon="2.46347">
        <ele>183.87</ele>
        <time>2021-05-16T07:55:55Z</time>
      </trkpt>
      <trkpt lat="43.28083" lon="2.46305">
        <ele>184.52</ele>
        <time>2021-05-16T07:56:14Z</time>
      </trkpt>
      <trkpt lat="43.28084" lon="2.46275">
        <ele>183.43</ele>
        <time>2021-05-16T07:56:25Z</time>
      </trkpt>
      <trkpt lat="43.28084" lon="2.4626">
        <ele>183.06</ele>
        <time>2021-05-16T07:56:29Z</time>
      </trkpt>
      <trkpt lat="43.28084" lon="2.46226">
        <ele>182.06</ele>
        <time>2021-05-16T07:56:42Z</time>
      </trkpt>
      <trkpt lat="43.28062" lon="2.46191">
        <ele>180.24</ele>
        <time>2021-05-16T07:57:06Z</time>
      </trkpt>
      <trkpt lat="43.28014" lon="2.46068">
        <ele>173.53</ele>
        <time>2021-05-16T07:57:43Z</time>
      </trkpt>
      <trkpt lat="43.28007" lon="2.4601">
        <ele>171.18</ele>
        <time>2021-05-16T07:58:00Z</time>
      </trkpt>
      <trkpt lat="43.28012" lon="2.45968">
        <ele>168.19</ele>
        <time>2021-05-16T07:58:12Z</time>
      </trkpt>
      <trkpt lat="43.28016" lon="2.45936">
        <ele>165.54</ele>
        <time>2021-05-16T07:58:22Z</time>
      </trkpt>
      <trkpt lat="43.27988" lon="2.45835">
        <ele>159.3</ele>
        <time>2021-05-16T07:58:56Z</time>
      </trkpt>
      <trkpt lat="43.27969" lon="2.45772">
        <ele>153.43</ele>
        <time>2021-05-16T07:59:17Z</time>
      </trkpt>
      <trkpt lat="43.27958" lon="2.45728">
        <ele>150.25</ele>
        <time>2021-05-16T07:59:26Z</time>
      </trkpt>
      <trkpt lat="43.27964" lon="2.45695">
        <ele>148.55</ele>
        <time>2021-05-16T07:59:35Z</time>
      </trkpt>
      <trkpt lat="43.27973" lon="2.45668">
        <ele>147.73</ele>
        <time>2021-05-16T07:59:44Z</time>
      </trkpt>
      <trkpt lat="43.27977" lon="2.45637">
        <ele>148.09</ele>
        <time>2021-05-16T07:59:53Z</time>
      </trkpt>
      <trkpt lat="43.27977" lon="2.45609">
        <ele>147.69</ele>
        <time>2021-05-16T08:00:03Z</time>
      </trkpt>
      <trkpt lat="43.2798" lon="2.4558">
        <ele>146.77</ele>
        <time>2021-05-16T08:00:11Z</time>
      </trkpt>
      <trkpt lat="43.27981" lon="2.45552">
        <ele>146.35</ele>
        <time>2021-05-16T08:00:20Z</time>
      </trkpt>
      <trkpt lat="43.27976" lon="2.45517">
        <ele>146.52</ele>
        <time>2021-05-16T08:00:32Z</time>
      </trkpt>
      <trkpt lat="43.27972" lon="2.45486">
        <ele>146.9</ele>
        <time>2021-05-16T08:00:41Z</time>
      </trkpt>
      <trkpt lat="43.27971" lon="2.45453">
        <ele>147.37</ele>
        <time>2021-05-16T08:00:52Z</time>
      </trkpt>
      <trkpt lat="43.27974" lon="2.45422">
        <ele>147.94</ele>
        <time>2021-05-16T08:01:01Z</time>
      </trkpt>
      <trkpt lat="43.27973" lon="2.45391">
        <ele>148.55</ele>
        <time>2021-05-16T08:01:10Z</time>
      </trkpt>
      <trkpt lat="43.27973" lon="2.4536">
        <ele>149.3</ele>
        <time>2021-05-16T08:01:20Z</time>
      </trkpt>
      <trkpt lat="43.27959" lon="2.45334">
        <ele>149.12</ele>
        <time>2021-05-16T08:01:50Z</time>
      </trkpt>
      <trkpt lat="43.2794" lon="2.45318">
        <ele>147.42</ele>
        <time>2021-05-16T08:02:13Z</time>
      </trkpt>
      <trkpt lat="43.27922" lon="2.45302">
        <ele>145.63</ele>
        <time>2021-05-16T08:02:29Z</time>
      </trkpt>
      <trkpt lat="43.27917" lon="2.45275">
        <ele>145.12</ele>
        <time>2021-05-16T08:02:40Z</time>
      </trkpt>
      <trkpt lat="43.27917" lon="2.45247">
        <ele>145.04</ele>
        <time>2021-05-16T08:02:49Z</time>
      </trkpt>
      <trkpt lat="43.27906" lon="2.45211">
        <ele>145.64</ele>
        <time>2021-05-16T08:03:06Z</time>
      </trkpt>
      <trkpt lat="43.27899" lon="2.45152">
        <ele>145.2</ele>
        <time>2021-05-16T08:03:28Z</time>
      </trkpt>
      <trkpt lat="43.27898" lon="2.45148">
        <ele>145.12</ele>
        <time>2021-05-16T08:03:29Z</time>
      </trkpt>
      <trkpt lat="43.27885" lon="2.45099">
        <ele>143.46</ele>
        <time>2021-05-16T08:03:45Z</time>
      </trkpt>
      <trkpt lat="43.27874" lon="2.45053">
        <ele>141.3</ele>
        <time>2021-05-16T08:04:02Z</time>
      </trkpt>
      <trkpt lat="43.2787" lon="2.45018">
        <ele>135.36</ele>
        <time>2021-05-16T08:04:26Z</time>
      </trkpt>
      <trkpt lat="43.27856" lon="2.44944">
        <ele>133.3</ele>
        <time>2021-05-16T08:04:49Z</time>
      </trkpt>
      <trkpt lat="43.27841" lon="2.44885">
        <ele>129.74</ele>
        <time>2021-05-16T08:05:19Z</time>
      </trkpt>
      <trkpt lat="43.27844" lon="2.44854">
        <ele>128.65</ele>
        <time>2021-05-16T08:05:31Z</time>
      </trkpt>
      <trkpt lat="43.27855" lon="2.44812">
        <ele>127.46</ele>
        <time>2021-05-16T08:05:42Z</time>
      </trkpt>
      <trkpt lat="43.27863" lon="2.44777">
        <ele>126.81</ele>
        <time>2021-05-16T08:05:52Z</time>
      </trkpt>
      <trkpt lat="43.2787" lon="2.44745">
        <ele>125.89</ele>
        <time>2021-05-16T08:06:01Z</time>
      </trkpt>
      <trkpt lat="43.2788" lon="2.44704">
        <ele>124.71</ele>
        <time>2021-05-16T08:06:15Z</time>
      </trkpt>
      <trkpt lat="43.27897" lon="2.44673">
        <ele>124.5</ele>
        <time>2021-05-16T08:06:25Z</time>
      </trkpt>
      <trkpt lat="43.27911" lon="2.44646">
        <ele>124.6</ele>
        <time>2021-05-16T08:06:34Z</time>
      </trkpt>
      <trkpt lat="43.27924" lon="2.44625">
        <ele>124.93</ele>
        <time>2021-05-16T08:06:42Z</time>
      </trkpt>
      <trkpt lat="43.27941" lon="2.44602">
        <ele>126.44</ele>
        <time>2021-05-16T08:06:57Z</time>
      </trkpt>
      <trkpt lat="43.27971" lon="2.4458">
        <ele>128.53</ele>
        <time>2021-05-16T08:07:13Z</time>
      </trkpt>
      <trkpt lat="43.27988" lon="2.44561">
        <ele>129.54</ele>
        <time>2021-05-16T08:07:27Z</time>
      </trkpt>
      <trkpt lat="43.28" lon="2.44539">
        <ele>130.19</ele>
        <time>2021-05-16T08:07:38Z</time>
      </trkpt>
      <trkpt lat="43.28013" lon="2.4452">
        <ele>130.46</ele>
        <time>2021-05-16T08:07:47Z</time>
      </trkpt>
      <trkpt lat="43.28029" lon="2.44499">
        <ele>130.74</ele>
        <time>2021-05-16T08:07:58Z</time>
      </trkpt>
      <trkpt lat="43.28049" lon="2.44487">
        <ele>131.28</ele>
        <time>2021-05-16T08:08:08Z</time>
      </trkpt>
      <trkpt lat="43.28068" lon="2.44471">
        <ele>131.98</ele>
        <time>2021-05-16T08:08:21Z</time>
      </trkpt>
      <trkpt lat="43.28088" lon="2.4445">
        <ele>132.25</ele>
        <time>2021-05-16T08:08:32Z</time>
      </trkpt>
      <trkpt lat="43.28097" lon="2.44426">
        <ele>131.97</ele>
        <time>2021-05-16T08:08:49Z</time>
      </trkpt>
      <trkpt lat="43.28101" lon="2.44394">
        <ele>133.33</ele>
        <time>2021-05-16T08:09:02Z</time>
      </trkpt>
      <trkpt lat="43.28103" lon="2.44363">
        <ele>136.1</ele>
        <time>2021-05-16T08:09:17Z</time>
      </trkpt>
      <trkpt lat="43.28089" lon="2.44338">
        <ele>138.81</ele>
        <time>2021-05-16T08:09:33Z</time>
      </trkpt>
      <trkpt lat="43.28072" lon="2.44314">
        <ele>143.14</ele>
        <time>2021-05-16T08:09:48Z</time>
      </trkpt>
      <trkpt lat="43.28067" lon="2.44286">
        <ele>146.47</ele>
        <time>2021-05-16T08:10:01Z</time>
      </trkpt>
      <trkpt lat="43.28066" lon="2.44257">
        <ele>147.41</ele>
        <time>2021-05-16T08:10:10Z</time>
      </trkpt>
      <trkpt lat="43.28068" lon="2.44225">
        <ele>148.26</ele>
        <time>2021-05-16T08:10:19Z</time>
      </trkpt>
      <trkpt lat="43.28066" lon="2.44193">
        <ele>149.46</ele>
        <time>2021-05-16T08:10:38Z</time>
      </trkpt>
      <trkpt lat="43.28066" lon="2.44166">
        <ele>150.5</ele>
        <time>2021-05-16T08:11:12Z</time>
      </trkpt>
      <trkpt lat="43.2806" lon="2.44161">
        <ele>150.36</ele>
        <time>2021-05-16T08:12:14Z</time>
      </trkpt>
      <trkpt lat="43.28059" lon="2.44161">
        <ele>150.37</ele>
        <time>2021-05-16T08:12:16Z</time>
      </trkpt>
      <trkpt lat="43.28034" lon="2.44154">
        <ele>144.71</ele>
        <time>2021-05-16T08:12:42Z</time>
      </trkpt>
      <trkpt lat="43.2804" lon="2.44135">
        <ele>140.2</ele>
        <time>2021-05-16T08:12:54Z</time>
      </trkpt>
      <trkpt lat="43.28059" lon="2.44123">
        <ele>134.51</ele>
        <time>2021-05-16T08:13:08Z</time>
      </trkpt>
      <trkpt lat="43.28089" lon="2.44107">
        <ele>131.03</ele>
        <time>2021-05-16T08:13:19Z</time>
      </trkpt>
      <trkpt lat="43.28115" lon="2.44104">
        <ele>127.71</ele>
        <time>2021-05-16T08:13:29Z</time>
      </trkpt>
      <trkpt lat="43.28142" lon="2.4411">
        <ele>123.75</ele>
        <time>2021-05-16T08:13:43Z</time>
      </trkpt>
      <trkpt lat="43.28167" lon="2.44091">
        <ele>120.05</ele>
        <time>2021-05-16T08:13:55Z</time>
      </trkpt>
      <trkpt lat="43.28191" lon="2.44074">
        <ele>117.56</ele>
        <time>2021-05-16T08:14:07Z</time>
      </trkpt>
      <trkpt lat="43.28212" lon="2.44074">
        <ele>116.32</ele>
        <time>2021-05-16T08:14:16Z</time>
      </trkpt>
      <trkpt lat="43.28233" lon="2.44084">
        <ele>115.89</ele>
        <time>2021-05-16T08:14:24Z</time>
      </trkpt>
      <trkpt lat="43.28254" lon="2.44096">
        <ele>115.58</ele>
        <time>2021-05-16T08:14:32Z</time>
      </trkpt>
      <trkpt lat="43.28273" lon="2.44107">
        <ele>115.18</ele>
        <time>2021-05-16T08:14:40Z</time>
      </trkpt>
      <trkpt lat="43.28292" lon="2.44099">
        <ele>114.94</ele>
        <time>2021-05-16T08:14:53Z</time>
      </trkpt>
      <trkpt lat="43.283" lon="2.44076">
        <ele>114.17</ele>
        <time>2021-05-16T08:15:01Z</time>
      </trkpt>
      <trkpt lat="43.28308" lon="2.44048">
        <ele>113.58</ele>
        <time>2021-05-16T08:15:10Z</time>
      </trkpt>
      <trkpt lat="43.2832" lon="2.44022">
        <ele>113</ele>
        <time>2021-05-16T08:15:20Z</time>
      </trkpt>
      <trkpt lat="43.28334" lon="2.43996">
        <ele>112.63</ele>
        <time>2021-05-16T08:15:30Z</time>
      </trkpt>
      <trkpt lat="43.28309" lon="2.43961">
        <ele>90.75</ele>
        <time>2021-05-16T08:15:45Z</time>
      </trkpt>
    </trkseg>
  </trk>
</gpx>